createdAt,value
2018-12-13T00:03:21.238Z,4.60
2018-12-13T00:08:23.120Z,4.53
2018-12-13T00:13:24.983Z,4.40
2018-12-13T00:18:26.639Z,4.73
2018-12-13T00:23:28.337Z,5.23
2018-12-13T00:28:30.221Z,5.90
2018-12-13T00:33:32.300Z,4.90
2018-12-13T00:38:34.200Z,5.00
2018-12-13T00:43:36.154Z,6.30
2018-12-13T00:48:38.056Z,4.93
2018-12-13T00:53:40.139Z,6.13
2018-12-13T00:58:41.812Z,5.77
2018-12-13T01:03:44.447Z,6.87
2018-12-13T01:08:46.092Z,5.60
2018-12-13T01:13:47.857Z,7.60
2018-12-13T01:18:49.739Z,6.93
2018-12-13T01:23:51.598Z,5.70
2018-12-13T01:28:53.451Z,6.83
2018-12-13T01:33:55.565Z,6.80
2018-12-13T01:38:57.660Z,5.67
2018-12-13T01:43:59.313Z,6.57
2018-12-13T01:49:01.416Z,6.10
2018-12-13T01:54:03.090Z,5.80
2018-12-13T01:59:04.991Z,7.10
2018-12-13T02:04:07.256Z,5.70
2018-12-13T02:09:08.926Z,5.33
2018-12-13T02:14:10.839Z,5.73
2018-12-13T02:19:12.680Z,4.83
2018-12-13T02:24:14.361Z,5.70
2018-12-13T02:29:16.551Z,5.23
2018-12-13T02:34:18.325Z,6.40
2018-12-13T02:39:20.415Z,5.23
2018-12-13T02:44:22.133Z,3.60
2018-12-13T02:49:23.779Z,3.87
2018-12-13T02:54:25.648Z,6.47
2018-12-13T02:59:27.715Z,4.60
2018-12-13T03:04:29.404Z,4.27
2018-12-13T03:09:31.077Z,6.13
2018-12-13T03:14:32.703Z,6.43
2018-12-13T03:19:34.663Z,5.83
2018-12-13T03:24:36.716Z,5.27
2018-12-13T03:29:38.800Z,4.47
2018-12-13T03:34:40.474Z,4.63
2018-12-13T03:39:42.149Z,5.83
2018-12-13T03:44:43.806Z,5.00
2018-12-13T03:49:45.699Z,5.63
2018-12-13T03:54:48.332Z,4.40
2018-12-13T03:59:49.976Z,5.00
2018-12-13T04:04:51.737Z,4.37
2018-12-13T04:09:53.406Z,4.77
2018-12-13T04:14:56.129Z,4.50
2018-12-13T04:19:57.982Z,5.60
2018-12-13T04:24:59.618Z,6.07
2018-12-13T04:30:01.452Z,6.40
2018-12-13T04:35:03.741Z,4.77
2018-12-13T04:40:06.243Z,4.87
2018-12-13T04:45:07.915Z,4.53
2018-12-13T04:50:09.833Z,5.70
2018-12-13T04:55:11.536Z,5.37
2018-12-13T05:00:13.426Z,4.80
2018-12-13T05:05:15.091Z,6.00
2018-12-13T05:16:03.522Z,6.27
2018-12-13T05:21:05.133Z,5.90
2018-12-13T05:26:07.088Z,5.87
2018-12-13T05:31:09.619Z,5.50
2018-12-13T05:36:11.670Z,5.67
2018-12-13T05:41:13.759Z,7.50
2018-12-13T05:46:15.850Z,6.50
2018-12-13T05:51:17.770Z,5.00
2018-12-13T05:56:19.395Z,5.73
2018-12-13T06:01:21.346Z,7.00
2018-12-13T06:06:22.971Z,4.77
2018-12-13T06:11:24.607Z,3.60
2018-12-13T06:16:26.706Z,6.97
2018-12-13T06:21:28.362Z,5.40
2018-12-13T06:26:30.004Z,6.07
2018-12-13T06:31:31.959Z,5.60
2018-12-13T06:36:33.646Z,5.83
2018-12-13T06:41:35.317Z,5.20
2018-12-13T06:46:37.529Z,7.53
2018-12-13T06:51:39.232Z,6.53
2018-12-13T06:56:40.906Z,4.40
2018-12-13T07:09:01.105Z,5.70
2018-12-13T07:14:03.063Z,5.67
2018-12-13T07:19:04.862Z,5.20
2018-12-13T07:24:06.547Z,6.30
2018-12-13T07:29:08.220Z,4.50
2018-12-13T07:34:10.115Z,5.40
2018-12-13T07:39:12.174Z,3.83
2018-12-13T07:44:14.280Z,4.07
2018-12-13T07:49:16.350Z,3.53
2018-12-13T07:54:18.260Z,3.47
2018-12-13T07:59:19.919Z,3.30
2018-12-13T08:04:21.623Z,2.20
2018-12-13T08:09:23.679Z,2.47
2018-12-13T08:14:25.361Z,2.60
2018-12-13T08:19:27.037Z,2.70
2018-12-13T08:24:28.681Z,2.97
2018-12-13T08:29:30.375Z,2.63
2018-12-13T08:34:32.150Z,4.07
2018-12-13T08:39:34.341Z,4.00
2018-12-13T08:44:36.637Z,3.23
2018-12-13T08:49:38.525Z,3.10
2018-12-13T08:54:40.197Z,2.73
2018-12-13T08:59:41.878Z,2.50
2018-12-13T09:04:43.962Z,3.00
2018-12-13T09:09:46.048Z,3.10
2018-12-13T09:14:47.728Z,2.33
2018-12-13T09:19:50.429Z,2.83
2018-12-13T09:24:52.709Z,2.70
2018-12-13T09:29:57.251Z,2.40
2018-12-13T09:35:00.359Z,4.10
2018-12-13T09:40:03.275Z,3.40
2018-12-13T09:45:06.307Z,5.63
2018-12-13T09:50:07.962Z,4.30
2018-12-13T09:55:09.919Z,5.50
2018-12-13T10:00:11.876Z,4.40
2018-12-13T10:05:13.541Z,5.53
2018-12-13T10:10:15.468Z,4.87
2018-12-13T10:15:17.119Z,3.67
2018-12-13T10:20:18.775Z,5.63
2018-12-13T10:25:20.662Z,7.27
2018-12-13T10:30:22.578Z,5.00
2018-12-13T10:35:24.528Z,4.40
2018-12-13T10:40:34.874Z,5.37
2018-12-13T10:45:39.191Z,4.67
2018-12-13T10:50:40.860Z,9.23
2018-12-13T10:55:42.491Z,8.03
2018-12-13T11:00:50.260Z,9.27
2018-12-13T11:05:51.956Z,8.17
2018-12-13T11:10:53.590Z,6.60
2018-12-13T11:15:55.543Z,6.70
2018-12-13T11:20:57.146Z,6.30
2018-12-13T11:25:58.785Z,4.80
2018-12-13T11:31:00.802Z,11.57
2018-12-13T11:36:02.494Z,6.53
2018-12-13T11:41:04.162Z,5.27
2018-12-13T11:46:06.521Z,7.43
2018-12-13T11:51:08.610Z,6.60
2018-12-13T11:56:10.297Z,5.27
2018-12-13T12:01:12.182Z,4.57
2018-12-13T12:06:14.058Z,5.20
2018-12-13T12:11:16.348Z,4.20
2018-12-13T12:16:18.407Z,4.97
2018-12-13T12:21:20.295Z,5.40
2018-12-13T12:26:21.940Z,4.70
2018-12-13T12:31:23.820Z,4.50
2018-12-13T12:36:25.710Z,5.30
2018-12-13T12:41:27.332Z,5.13
2018-12-13T12:46:29.303Z,5.90
2018-12-13T12:51:31.419Z,5.63
2018-12-13T12:56:33.046Z,5.20
2018-12-13T13:01:34.690Z,4.20
2018-12-13T13:06:36.303Z,4.50
2018-12-13T13:11:37.926Z,3.63
2018-12-13T13:16:39.616Z,4.07
2018-12-13T13:21:42.503Z,4.70
2018-12-13T13:26:45.785Z,4.10
2018-12-13T13:31:47.993Z,4.10
2018-12-13T13:36:49.660Z,3.67
2018-12-13T13:41:51.313Z,3.40
2018-12-13T13:46:52.969Z,4.77
2018-12-13T13:51:54.937Z,2.77
2018-12-13T13:57:01.600Z,4.07
2018-12-13T14:02:04.435Z,4.90
2018-12-13T14:07:06.060Z,3.40
2018-12-13T14:12:08.386Z,3.10
2018-12-13T14:17:10.261Z,4.90
2018-12-13T14:22:13.086Z,5.07
2018-12-13T14:27:15.239Z,4.50
2018-12-13T14:32:16.843Z,5.30
2018-12-13T14:37:19.158Z,3.97
2018-12-13T14:42:21.152Z,4.20
2018-12-13T14:47:22.794Z,5.27
2018-12-13T14:52:24.746Z,4.30
2018-12-13T14:57:26.393Z,3.83
2018-12-13T15:02:28.018Z,4.30
2018-12-13T15:07:29.989Z,4.63
2018-12-13T15:12:31.733Z,4.90
2018-12-13T15:17:33.578Z,5.17
2018-12-13T15:28:05.753Z,4.10
2018-12-13T15:33:07.399Z,2.90
2018-12-13T15:38:09.595Z,2.90
2018-12-13T15:43:11.626Z,2.00
2018-12-13T15:48:13.286Z,2.63
2018-12-13T15:53:14.912Z,3.57
2018-12-13T15:58:17.079Z,2.50
2018-12-13T16:03:18.925Z,3.17
2018-12-13T16:08:20.571Z,3.13
2018-12-13T16:13:22.439Z,4.57
2018-12-13T16:18:24.103Z,3.10
2018-12-13T16:23:26.223Z,4.47
2018-12-13T16:28:28.210Z,5.70
2018-12-13T16:33:29.908Z,4.23
2018-12-13T16:38:32.171Z,4.10
2018-12-13T16:43:33.786Z,4.00
2018-12-13T16:48:35.648Z,3.00
2018-12-13T16:53:40.744Z,4.30
2018-12-13T16:58:43.663Z,3.37
2018-12-13T17:03:45.541Z,3.90
2018-12-13T17:08:47.423Z,4.67
2018-12-13T17:13:49.050Z,4.13
2018-12-13T17:18:50.919Z,4.63
2018-12-13T17:23:52.815Z,5.07
2018-12-13T17:28:55.007Z,4.60
2018-12-13T17:33:56.652Z,5.03
2018-12-13T17:38:58.369Z,4.70
2018-12-13T17:44:00.259Z,6.20
2018-12-13T17:49:01.915Z,6.90
2018-12-13T17:54:05.747Z,6.60
2018-12-13T17:59:08.538Z,4.83
2018-12-13T18:04:13.063Z,4.57
2018-12-13T18:09:16.187Z,5.30
2018-12-13T18:14:21.629Z,4.37
2018-12-13T18:19:23.559Z,5.07
2018-12-13T18:24:32.405Z,5.13
2018-12-13T18:29:43.871Z,4.80
2018-12-13T18:34:47.797Z,5.87
2018-12-13T18:39:53.753Z,4.33
2018-12-13T18:44:55.972Z,6.27
2018-12-13T18:49:58.442Z,3.70
2018-12-13T18:55:02.893Z,4.40
2018-12-13T19:00:08.497Z,4.50
2018-12-13T19:05:11.349Z,5.17
2018-12-13T19:10:14.143Z,5.10
2018-12-13T19:15:19.776Z,4.77
2018-12-13T19:20:23.385Z,6.57
2018-12-13T19:25:25.563Z,5.13
2018-12-13T19:30:27.525Z,5.07
2018-12-13T19:35:31.982Z,6.30
2018-12-13T19:40:36.217Z,7.10
2018-12-13T19:45:38.195Z,5.97
2018-12-13T19:50:42.012Z,5.30
2018-12-13T19:55:43.985Z,5.47
2018-12-13T20:00:45.950Z,6.40
2018-12-13T20:05:48.161Z,6.03
2018-12-13T20:10:54.595Z,7.50
2018-12-13T20:15:54.200Z,4.47
2018-12-13T20:20:56.639Z,5.80
2018-12-13T20:25:58.608Z,6.57
2018-12-13T20:31:00.550Z,5.60
2018-12-13T20:36:02.564Z,5.27
2018-12-13T20:41:04.894Z,6.43
2018-12-13T20:46:07.060Z,8.40
2018-12-13T20:51:09.327Z,6.90
2018-12-13T20:56:11.353Z,7.17
2018-12-13T21:01:16.721Z,8.70
2018-12-13T21:06:19.591Z,5.40
2018-12-13T21:11:21.302Z,7.43
2018-12-13T21:16:22.931Z,6.97
2018-12-13T21:21:24.875Z,8.60
2018-12-13T21:26:26.514Z,6.50
2018-12-13T21:31:28.419Z,5.50
2018-12-13T21:36:30.343Z,9.20
2018-12-13T21:41:32.119Z,7.03
2018-12-13T21:46:33.787Z,9.07
2018-12-13T21:51:36.035Z,6.10
2018-12-13T21:56:37.700Z,7.30
2018-12-13T22:01:39.381Z,6.83
2018-12-13T22:06:51.117Z,6.20
2018-12-13T22:11:54.614Z,6.60
2018-12-13T22:16:56.372Z,7.20
2018-12-13T22:21:58.319Z,7.73
2018-12-13T22:27:00.092Z,7.70
2018-12-13T22:32:03.093Z,6.80
2018-12-13T22:37:05.131Z,6.43
2018-12-13T22:42:06.891Z,7.30
2018-12-13T22:47:08.551Z,7.47
2018-12-13T22:52:10.611Z,7.40
2018-12-13T22:57:12.788Z,6.90
2018-12-13T23:02:14.980Z,7.97
2018-12-13T23:07:16.858Z,7.97
2018-12-13T23:12:18.943Z,5.57
2018-12-13T23:17:21.030Z,6.90
2018-12-13T23:22:22.706Z,6.53
2018-12-13T23:27:24.332Z,6.93
2018-12-13T23:32:26.057Z,7.63
2018-12-13T23:37:28.355Z,8.40
2018-12-13T23:42:30.267Z,8.80
2018-12-13T23:47:32.135Z,5.70
2018-12-13T23:52:34.448Z,5.30
2018-12-13T23:57:36.111Z,7.60
